createdAt,value
2017-12-15T00:00:06.768Z,0
2017-12-15T00:01:08.581Z,0
2017-12-15T00:02:10.390Z,0
2017-12-15T00:03:12.202Z,0
2017-12-15T00:04:14.078Z,0
2017-12-15T00:05:15.962Z,0
2017-12-15T00:06:17.810Z,0
2017-12-15T00:07:19.622Z,0
2017-12-15T00:08:21.459Z,0
2017-12-15T00:09:35.668Z,0
2017-12-15T00:10:37.543Z,0
2017-12-15T00:11:39.425Z,0
2017-12-15T00:12:41.298Z,0
2017-12-15T00:13:43.118Z,0
2017-12-15T00:14:44.939Z,0
2017-12-15T00:15:46.821Z,0
2017-12-15T00:16:48.692Z,0
2017-12-15T00:17:50.578Z,0
2017-12-15T00:19:04.722Z,0
2017-12-15T00:20:06.606Z,0
2017-12-15T00:21:08.488Z,0
2017-12-15T00:22:10.360Z,0
2017-12-15T00:23:12.171Z,0
2017-12-15T00:24:13.981Z,0
2017-12-15T00:25:15.853Z,0
2017-12-15T00:26:17.737Z,0
2017-12-15T00:27:19.610Z,0
2017-12-15T00:28:33.766Z,0
2017-12-15T00:29:35.649Z,0
2017-12-15T00:30:37.529Z,0
2017-12-15T00:31:39.402Z,0
2017-12-15T00:32:41.225Z,0
2017-12-15T00:33:43.033Z,0
2017-12-15T00:34:44.908Z,0
2017-12-15T00:35:46.780Z,0
2017-12-15T00:36:48.664Z,0
2017-12-15T00:38:02.810Z,0
2017-12-15T00:39:04.722Z,0
2017-12-15T00:40:06.556Z,0
2017-12-15T00:41:08.443Z,0
2017-12-15T00:42:10.250Z,0
2017-12-15T00:43:12.060Z,0
2017-12-15T00:44:13.930Z,0
2017-12-15T00:45:15.812Z,0
2017-12-15T00:46:17.683Z,0
2017-12-15T00:47:31.830Z,0
2017-12-15T00:48:33.700Z,0
2017-12-15T00:49:35.570Z,0
2017-12-15T00:50:37.444Z,0
2017-12-15T00:51:39.257Z,0
2017-12-15T00:52:41.079Z,0
2017-12-15T00:53:42.952Z,0
2017-12-15T00:54:44.795Z,0
2017-12-15T00:55:46.648Z,0
2017-12-15T00:57:00.842Z,0
2017-12-15T00:58:02.715Z,0
2017-12-15T00:59:04.593Z,0
2017-12-15T01:00:06.478Z,0
2017-12-15T01:01:08.301Z,0
2017-12-15T01:02:10.123Z,0
2017-12-15T01:03:11.996Z,0
2017-12-15T01:04:13.871Z,0
2017-12-15T01:05:15.748Z,0
2017-12-15T01:06:29.943Z,0
2017-12-15T01:07:31.816Z,0
2017-12-15T01:08:33.696Z,0
2017-12-15T01:09:35.569Z,0
2017-12-15T01:10:37.391Z,0
2017-12-15T01:11:39.213Z,0
2017-12-15T01:12:41.097Z,0
2017-12-15T01:13:42.971Z,0
2017-12-15T01:14:44.855Z,0
2017-12-15T01:15:59.066Z,0
2017-12-15T01:17:00.935Z,0
2017-12-15T01:18:02.815Z,0
2017-12-15T01:19:04.688Z,0
2017-12-15T01:20:06.505Z,0
2017-12-15T01:21:08.314Z,0
2017-12-15T01:22:10.189Z,0
2017-12-15T01:23:12.073Z,0
2017-12-15T01:24:14.140Z,0
2017-12-15T01:25:28.298Z,0
2017-12-15T01:26:30.181Z,0
2017-12-15T01:27:32.059Z,0
2017-12-15T01:28:33.931Z,0
2017-12-15T01:29:35.744Z,0
2017-12-15T01:30:37.564Z,0
2017-12-15T01:31:39.446Z,0
2017-12-15T01:32:41.330Z,0
2017-12-15T01:33:43.214Z,0
2017-12-15T01:34:57.374Z,0
2017-12-15T01:35:59.247Z,0
2017-12-15T01:37:01.130Z,0
2017-12-15T01:38:03.012Z,0
2017-12-15T01:39:04.824Z,0
2017-12-15T01:40:06.645Z,0
2017-12-15T01:41:08.529Z,0
2017-12-15T01:42:10.403Z,0
2017-12-15T01:43:12.280Z,0
2017-12-15T01:44:26.426Z,0
2017-12-15T01:45:28.298Z,0
2017-12-15T01:46:30.179Z,0
2017-12-15T01:47:32.076Z,0
2017-12-15T01:48:33.876Z,0
2017-12-15T01:49:35.696Z,0
2017-12-15T01:50:37.577Z,0
2017-12-15T01:51:39.466Z,0
2017-12-15T01:52:41.339Z,0
2017-12-15T01:53:55.484Z,0
2017-12-15T01:54:57.356Z,0
2017-12-15T01:55:59.228Z,0
2017-12-15T01:57:01.110Z,0
2017-12-15T01:58:02.921Z,0
2017-12-15T01:59:04.734Z,0
2017-12-15T02:00:06.614Z,0
2017-12-15T02:01:08.487Z,0
2017-12-15T02:02:10.359Z,0
2017-12-15T02:03:24.504Z,0
2017-12-15T02:04:26.379Z,0
2017-12-15T02:05:28.256Z,0
2017-12-15T02:06:30.131Z,0
2017-12-15T02:07:31.944Z,0
2017-12-15T02:08:33.753Z,0
2017-12-15T02:09:35.626Z,0
2017-12-15T02:10:37.509Z,0
2017-12-15T02:11:39.381Z,0
2017-12-15T02:12:53.526Z,0
2017-12-15T02:13:55.399Z,0
2017-12-15T02:14:57.270Z,0
2017-12-15T02:15:59.152Z,0
2017-12-15T02:17:00.962Z,0
2017-12-15T02:18:02.775Z,0
2017-12-15T02:19:04.650Z,0
2017-12-15T02:20:06.534Z,0
2017-12-15T02:21:08.409Z,0
2017-12-15T02:22:22.556Z,0
2017-12-15T02:23:24.429Z,0
2017-12-15T02:24:26.303Z,0
2017-12-15T02:25:28.174Z,0
2017-12-15T02:26:29.986Z,0
2017-12-15T02:27:31.807Z,0
2017-12-15T02:28:33.679Z,0
2017-12-15T02:29:35.562Z,0
2017-12-15T02:30:37.438Z,0
2017-12-15T02:31:51.582Z,0
2017-12-15T02:32:53.452Z,0
2017-12-15T02:33:55.325Z,0
2017-12-15T02:34:57.197Z,0
2017-12-15T02:35:59.017Z,0
2017-12-15T02:37:00.821Z,0
2017-12-15T02:38:02.693Z,0
2017-12-15T02:39:04.566Z,0
2017-12-15T02:40:06.450Z,0
2017-12-15T02:41:20.597Z,0
2017-12-15T02:42:22.469Z,0
2017-12-15T02:43:24.345Z,0
2017-12-15T02:44:26.217Z,0
2017-12-15T02:45:28.030Z,0
2017-12-15T02:46:29.852Z,0
2017-12-15T02:47:31.726Z,0
2017-12-15T02:48:33.599Z,0
2017-12-15T02:49:35.473Z,0
2017-12-15T02:50:49.667Z,0
2017-12-15T02:51:51.539Z,0
2017-12-15T02:52:53.422Z,0
2017-12-15T02:53:55.296Z,0
2017-12-15T02:54:57.123Z,0
2017-12-15T02:55:58.937Z,0
2017-12-15T02:57:00.831Z,0
2017-12-15T02:58:02.707Z,0
2017-12-15T02:59:04.587Z,0
2017-12-15T03:00:18.777Z,0
2017-12-15T03:01:20.664Z,0
2017-12-15T03:02:22.542Z,0
2017-12-15T03:03:24.419Z,0
2017-12-15T03:04:26.230Z,0
2017-12-15T03:05:28.053Z,0
2017-12-15T03:06:29.930Z,0
2017-12-15T03:07:31.805Z,0
2017-12-15T03:08:33.691Z,0
2017-12-15T03:09:47.847Z,0
2017-12-15T03:10:49.734Z,0
2017-12-15T03:11:51.613Z,0
2017-12-15T03:12:53.488Z,0
2017-12-15T03:13:55.351Z,0
2017-12-15T03:14:57.175Z,0
2017-12-15T03:15:58.993Z,0
2017-12-15T03:17:00.879Z,0
2017-12-15T03:18:02.755Z,0
2017-12-15T03:19:17.011Z,0
2017-12-15T03:20:18.898Z,0
2017-12-15T03:21:20.785Z,0
2017-12-15T03:22:22.684Z,0
2017-12-15T03:23:24.501Z,0
2017-12-15T03:24:26.324Z,0
2017-12-15T03:25:28.198Z,0
2017-12-15T03:26:30.087Z,0
2017-12-15T03:27:31.973Z,0
2017-12-15T03:28:46.120Z,0
2017-12-15T03:29:48.013Z,0
2017-12-15T03:30:49.892Z,0
2017-12-15T03:31:51.767Z,0
2017-12-15T03:32:53.577Z,0
2017-12-15T03:33:55.390Z,0
2017-12-15T03:34:57.269Z,0
2017-12-15T03:35:59.143Z,0
2017-12-15T03:37:01.028Z,0
2017-12-15T03:38:15.180Z,0
2017-12-15T03:39:17.054Z,0
2017-12-15T03:40:18.933Z,0
2017-12-15T03:41:20.816Z,0
2017-12-15T03:42:22.643Z,0
2017-12-15T03:43:24.459Z,0
2017-12-15T03:44:26.331Z,0
2017-12-15T03:45:28.218Z,0
2017-12-15T03:46:30.105Z,0
2017-12-15T03:47:44.253Z,0
2017-12-15T03:48:46.140Z,0
2017-12-15T03:49:48.026Z,0
2017-12-15T03:50:49.913Z,0
2017-12-15T03:51:51.741Z,0
2017-12-15T03:52:53.551Z,0
2017-12-15T03:53:55.426Z,0
2017-12-15T03:54:57.302Z,0
2017-12-15T03:55:59.189Z,0
2017-12-15T03:57:13.346Z,0
2017-12-15T03:58:15.231Z,0
2017-12-15T03:59:17.118Z,0
2017-12-15T04:00:18.992Z,0
2017-12-15T04:01:20.818Z,0
2017-12-15T04:02:22.631Z,0
2017-12-15T04:03:24.518Z,0
2017-12-15T04:04:26.402Z,0
2017-12-15T04:05:28.289Z,0
2017-12-15T04:06:42.450Z,0
2017-12-15T04:07:44.337Z,0
2017-12-15T04:08:46.214Z,0
2017-12-15T04:09:48.086Z,0
2017-12-15T04:10:49.912Z,0
2017-12-15T04:11:51.735Z,0
2017-12-15T04:12:53.621Z,0
2017-12-15T04:13:55.497Z,0
2017-12-15T04:14:57.384Z,0
2017-12-15T04:16:11.543Z,0
2017-12-15T04:17:13.419Z,0
2017-12-15T04:18:15.297Z,0
2017-12-15T04:19:17.170Z,0
2017-12-15T04:20:18.997Z,0
2017-12-15T04:21:20.818Z,0
2017-12-15T04:22:22.702Z,0
2017-12-15T04:23:24.578Z,0
2017-12-15T04:24:26.465Z,0
2017-12-15T04:25:40.613Z,0
2017-12-15T04:26:42.500Z,0
2017-12-15T04:27:44.387Z,0
2017-12-15T04:28:46.264Z,0
2017-12-15T04:29:48.076Z,0
2017-12-15T04:30:49.899Z,0
2017-12-15T04:31:51.788Z,0
2017-12-15T04:32:53.675Z,0
2017-12-15T04:33:55.551Z,0
2017-12-15T04:35:09.760Z,0
2017-12-15T04:36:11.633Z,0
2017-12-15T04:37:13.518Z,0
2017-12-15T04:38:15.399Z,0
2017-12-15T04:39:17.206Z,0
2017-12-15T04:40:19.018Z,0
2017-12-15T04:41:20.903Z,0
2017-12-15T04:42:22.791Z,0
2017-12-15T04:43:24.667Z,0
2017-12-15T04:44:38.814Z,0
2017-12-15T04:45:40.700Z,0
2017-12-15T04:46:42.586Z,0
2017-12-15T04:47:44.459Z,0
2017-12-15T04:48:46.286Z,0
2017-12-15T04:49:48.101Z,0
2017-12-15T04:50:49.986Z,0
2017-12-15T04:51:51.871Z,0
2017-12-15T04:52:53.747Z,0
2017-12-15T04:54:07.957Z,0
2017-12-15T04:55:09.831Z,0
2017-12-15T04:56:11.709Z,0
2017-12-15T04:57:13.595Z,0
2017-12-15T04:58:15.413Z,0
2017-12-15T04:59:17.223Z,0
2017-12-15T05:00:19.107Z,0
2017-12-15T05:01:21.028Z,0
2017-12-15T05:02:23.015Z,0
2017-12-15T05:03:37.317Z,0
2017-12-15T05:04:39.308Z,0
2017-12-15T05:05:41.255Z,0
2017-12-15T05:06:43.206Z,0
2017-12-15T05:07:45.146Z,0
2017-12-15T05:08:47.124Z,0
2017-12-15T05:09:49.191Z,0
2017-12-15T05:10:51.267Z,0
2017-12-15T05:11:53.291Z,0
2017-12-15T05:13:07.649Z,0
2017-12-15T05:14:09.629Z,0
2017-12-15T05:15:11.662Z,0
2017-12-15T05:16:13.652Z,0
2017-12-15T05:17:15.560Z,0
2017-12-15T05:18:17.437Z,0
2017-12-15T05:19:19.324Z,0
2017-12-15T05:20:21.185Z,0
2017-12-15T05:21:23.072Z,0
2017-12-15T05:22:37.225Z,0
2017-12-15T05:23:39.102Z,0
2017-12-15T05:24:40.994Z,0
2017-12-15T05:25:42.852Z,0
2017-12-15T05:26:44.680Z,0
2017-12-15T05:27:46.490Z,0
2017-12-15T05:28:48.365Z,0
2017-12-15T05:29:50.250Z,0
2017-12-15T05:30:52.125Z,0
2017-12-15T05:32:06.273Z,0
2017-12-15T05:33:08.160Z,0
2017-12-15T05:34:10.046Z,0
2017-12-15T05:35:11.922Z,0
2017-12-15T05:36:13.746Z,0
2017-12-15T05:37:15.569Z,0
2017-12-15T05:38:17.455Z,0
2017-12-15T05:39:19.342Z,0
2017-12-15T05:40:21.231Z,0
2017-12-15T05:41:35.375Z,0
2017-12-15T05:42:37.261Z,0
2017-12-15T05:43:39.138Z,0
2017-12-15T05:44:41.012Z,0
2017-12-15T05:45:42.836Z,0
2017-12-15T05:46:44.646Z,0
2017-12-15T05:47:46.535Z,0
2017-12-15T05:48:48.411Z,0
2017-12-15T05:49:50.285Z,0
2017-12-15T05:51:04.416Z,0
2017-12-15T05:52:06.301Z,0
2017-12-15T05:53:08.178Z,0
2017-12-15T05:54:10.057Z,0
2017-12-15T05:55:11.871Z,0
2017-12-15T05:56:13.695Z,0
2017-12-15T05:57:15.525Z,0
2017-12-15T05:58:17.410Z,0
2017-12-15T05:59:19.286Z,0
2017-12-15T06:00:33.459Z,0
2017-12-15T06:01:35.377Z,0
2017-12-15T06:02:37.228Z,0
2017-12-15T06:03:39.114Z,0
2017-12-15T06:04:40.922Z,0
2017-12-15T06:05:42.735Z,0
2017-12-15T06:06:44.626Z,0
2017-12-15T06:07:46.505Z,0
2017-12-15T06:08:48.381Z,0
2017-12-15T06:10:02.628Z,0
2017-12-15T06:11:04.470Z,0
2017-12-15T06:12:06.346Z,0
2017-12-15T06:13:08.228Z,0
2017-12-15T06:14:10.037Z,0
2017-12-15T06:15:11.848Z,0
2017-12-15T06:16:13.733Z,0
2017-12-15T06:17:15.607Z,0
2017-12-15T06:18:17.496Z,0
2017-12-15T06:19:31.641Z,0
2017-12-15T06:20:33.527Z,0
2017-12-15T06:21:35.413Z,0
2017-12-15T06:22:37.299Z,0
2017-12-15T06:23:39.127Z,0
2017-12-15T06:24:40.962Z,0
2017-12-15T06:25:42.839Z,0
2017-12-15T06:26:44.715Z,0
2017-12-15T06:27:46.601Z,0
2017-12-15T06:29:00.752Z,0
2017-12-15T06:30:02.626Z,0
2017-12-15T06:31:04.505Z,0
2017-12-15T06:32:06.379Z,0
2017-12-15T06:33:08.192Z,0
2017-12-15T06:34:10.003Z,0
2017-12-15T06:35:11.877Z,0
2017-12-15T06:36:13.761Z,0
2017-12-15T06:37:15.649Z,0
2017-12-15T06:38:29.808Z,0
2017-12-15T06:39:31.672Z,0
2017-12-15T06:40:33.546Z,0
2017-12-15T06:41:35.428Z,0
2017-12-15T06:42:37.243Z,0
2017-12-15T06:43:39.054Z,0
2017-12-15T06:44:41.310Z,0
2017-12-15T06:45:43.200Z,0
2017-12-15T06:46:45.074Z,0
2017-12-15T06:47:59.234Z,0
2017-12-15T06:49:01.107Z,0
2017-12-15T06:50:02.986Z,0
2017-12-15T06:51:04.858Z,0
2017-12-15T06:52:06.674Z,0
2017-12-15T06:53:08.501Z,0
2017-12-15T06:54:10.377Z,0
2017-12-15T06:55:12.251Z,0
2017-12-15T06:56:14.127Z,0
2017-12-15T06:57:28.286Z,0
2017-12-15T06:58:30.173Z,0
2017-12-15T06:59:32.047Z,0
2017-12-15T07:00:33.921Z,0
2017-12-15T07:01:35.737Z,0
2017-12-15T07:02:37.560Z,0
2017-12-15T07:03:39.431Z,0
2017-12-15T07:04:41.316Z,0
2017-12-15T07:05:43.200Z,0
2017-12-15T07:06:57.349Z,0
2017-12-15T07:07:59.227Z,0
2017-12-15T07:09:01.101Z,0
2017-12-15T07:10:02.987Z,0
2017-12-15T07:11:04.804Z,0
2017-12-15T07:12:06.618Z,0
2017-12-15T07:13:08.503Z,0
2017-12-15T07:14:10.377Z,0
2017-12-15T07:15:12.254Z,0
2017-12-15T07:16:26.403Z,0
2017-12-15T07:17:28.277Z,0
2017-12-15T07:18:30.166Z,5
2017-12-15T07:19:32.038Z,5
2017-12-15T07:20:33.859Z,5
2017-12-15T07:21:35.682Z,5
2017-12-15T07:22:37.550Z,5
2017-12-15T07:23:39.424Z,5
2017-12-15T07:24:41.309Z,5
2017-12-15T07:25:55.461Z,5
2017-12-15T07:26:57.348Z,5
2017-12-15T07:27:59.234Z,5
2017-12-15T07:29:01.120Z,5
2017-12-15T07:30:02.939Z,5
2017-12-15T07:31:04.753Z,5
2017-12-15T07:32:06.627Z,5
2017-12-15T07:33:08.513Z,5
2017-12-15T07:34:10.392Z,10
2017-12-15T07:35:24.555Z,10
2017-12-15T07:36:26.432Z,10
2017-12-15T07:37:28.310Z,10
2017-12-15T07:38:30.196Z,10
2017-12-15T07:39:32.028Z,10
2017-12-15T07:40:33.844Z,10
2017-12-15T07:41:35.720Z,10
2017-12-15T07:42:37.599Z,15
2017-12-15T07:43:39.477Z,15
2017-12-15T07:44:53.638Z,15
2017-12-15T07:45:55.526Z,15
2017-12-15T07:46:57.416Z,15
2017-12-15T07:47:59.298Z,15
2017-12-15T07:49:01.116Z,15
2017-12-15T07:50:02.932Z,15
2017-12-15T07:51:04.807Z,15
2017-12-15T07:52:06.693Z,15
2017-12-15T07:53:08.570Z,20
2017-12-15T07:54:22.734Z,20
2017-12-15T07:55:24.621Z,20
2017-12-15T07:56:26.500Z,20
2017-12-15T07:57:28.380Z,20
2017-12-15T07:58:30.196Z,20
2017-12-15T07:59:32.010Z,20
2017-12-15T08:00:33.890Z,25
2017-12-15T08:01:35.768Z,25
2017-12-15T08:02:37.655Z,25
2017-12-15T08:03:51.866Z,25
2017-12-15T08:04:53.741Z,25
2017-12-15T08:05:55.629Z,30
2017-12-15T08:06:57.519Z,30
2017-12-15T08:07:59.337Z,30
2017-12-15T08:09:01.164Z,30
2017-12-15T08:10:03.101Z,30
2017-12-15T08:11:04.931Z,30
2017-12-15T08:12:06.820Z,30
2017-12-15T08:13:20.972Z,30
2017-12-15T08:14:22.849Z,30
2017-12-15T08:15:24.730Z,30
2017-12-15T08:16:26.604Z,30
2017-12-15T08:17:28.425Z,30
2017-12-15T08:18:30.241Z,30
2017-12-15T08:19:32.117Z,30
2017-12-15T08:20:33.995Z,30
2017-12-15T08:21:35.873Z,30
2017-12-15T08:22:50.024Z,30
2017-12-15T08:23:51.912Z,35
2017-12-15T08:24:53.800Z,35
2017-12-15T08:25:55.685Z,35
2017-12-15T08:26:57.505Z,30
2017-12-15T08:27:59.325Z,30
2017-12-15T08:29:01.196Z,30
2017-12-15T08:30:03.072Z,30
2017-12-15T08:31:04.952Z,25
2017-12-15T08:32:19.103Z,25
2017-12-15T08:33:20.991Z,25
2017-12-15T08:34:22.879Z,25
2017-12-15T08:35:24.763Z,30
2017-12-15T08:36:26.595Z,30
2017-12-15T08:37:28.411Z,30
2017-12-15T08:38:30.298Z,30
2017-12-15T08:39:32.175Z,35
2017-12-15T08:40:34.064Z,35
2017-12-15T08:41:48.214Z,35
2017-12-15T08:42:50.102Z,35
2017-12-15T08:43:51.979Z,35
2017-12-15T08:44:53.854Z,35
2017-12-15T08:45:55.676Z,40
2017-12-15T08:46:57.491Z,40
2017-12-15T08:47:59.380Z,45
2017-12-15T08:49:01.268Z,45
2017-12-15T08:50:03.164Z,50
2017-12-15T08:51:17.303Z,55
2017-12-15T08:52:19.180Z,55
2017-12-15T08:53:21.069Z,60
2017-12-15T08:54:22.978Z,60
2017-12-15T08:55:24.768Z,60
2017-12-15T08:56:26.594Z,65
2017-12-15T08:57:28.484Z,65
2017-12-15T08:58:30.372Z,65
2017-12-15T08:59:32.252Z,65
2017-12-15T09:00:46.406Z,65
2017-12-15T09:01:48.283Z,65
2017-12-15T09:02:50.172Z,65
2017-12-15T09:03:52.051Z,65
2017-12-15T09:04:53.876Z,60
2017-12-15T09:05:55.701Z,60
2017-12-15T09:06:57.590Z,60
2017-12-15T09:07:59.466Z,55
2017-12-15T09:09:01.358Z,55
2017-12-15T09:10:15.511Z,50
2017-12-15T09:11:17.388Z,50
2017-12-15T09:12:19.270Z,50
2017-12-15T09:13:21.145Z,50
2017-12-15T09:14:22.976Z,50
2017-12-15T09:15:24.803Z,50
2017-12-15T09:16:26.694Z,50
2017-12-15T09:17:28.582Z,50
2017-12-15T09:18:30.472Z,50
2017-12-15T09:19:44.685Z,50
2017-12-15T09:20:46.564Z,55
2017-12-15T09:21:48.452Z,55
2017-12-15T09:22:50.340Z,55
2017-12-15T09:23:52.164Z,55
2017-12-15T09:24:53.975Z,60
2017-12-15T09:25:55.854Z,60
2017-12-15T09:26:57.745Z,60
2017-12-15T09:27:59.626Z,60
2017-12-15T09:29:13.781Z,55
2017-12-15T09:30:15.661Z,65
2017-12-15T09:31:17.540Z,75
2017-12-15T09:32:19.428Z,80
2017-12-15T09:33:21.250Z,80
2017-12-15T09:34:23.067Z,85
2017-12-15T09:35:24.958Z,95
2017-12-15T09:36:26.854Z,100
2017-12-15T09:37:28.729Z,105
2017-12-15T09:38:42.935Z,115
2017-12-15T09:39:44.816Z,115
2017-12-15T09:40:46.696Z,125
2017-12-15T09:41:48.577Z,135
2017-12-15T09:42:50.409Z,145
2017-12-15T09:43:52.234Z,155
2017-12-15T09:44:54.104Z,175
2017-12-15T09:45:55.984Z,185
2017-12-15T09:46:57.866Z,195
2017-12-15T09:48:12.067Z,205
2017-12-15T09:49:13.946Z,210
2017-12-15T09:50:15.824Z,210
2017-12-15T09:51:17.702Z,220
2017-12-15T09:52:19.536Z,220
2017-12-15T09:53:21.352Z,225
2017-12-15T09:54:23.242Z,220
2017-12-15T09:55:25.121Z,215
2017-12-15T09:56:27.006Z,210
2017-12-15T09:57:41.158Z,205
2017-12-15T09:58:43.038Z,200
2017-12-15T09:59:44.920Z,195
2017-12-15T10:00:46.798Z,190
2017-12-15T10:01:48.616Z,185
2017-12-15T10:02:50.443Z,180
2017-12-15T10:03:52.334Z,175
2017-12-15T10:04:54.213Z,165
2017-12-15T10:05:56.093Z,155
2017-12-15T10:07:10.260Z,145
2017-12-15T10:08:12.152Z,135
2017-12-15T10:09:14.044Z,130
2017-12-15T10:10:15.920Z,130
2017-12-15T10:11:17.753Z,120
2017-12-15T10:12:19.570Z,120
2017-12-15T10:13:21.452Z,115
2017-12-15T10:14:23.330Z,115
2017-12-15T10:15:25.211Z,115
2017-12-15T10:16:39.364Z,105
2017-12-15T10:17:41.244Z,110
2017-12-15T10:18:43.126Z,105
2017-12-15T10:19:45.004Z,110
2017-12-15T10:20:46.825Z,110
2017-12-15T10:21:48.645Z,115
2017-12-15T10:22:50.533Z,115
2017-12-15T10:23:52.421Z,120
2017-12-15T10:24:54.314Z,120
2017-12-15T10:26:08.466Z,125
2017-12-15T10:27:10.343Z,125
2017-12-15T10:28:12.225Z,130
2017-12-15T10:29:14.102Z,130
2017-12-15T10:30:15.933Z,130
2017-12-15T10:31:17.762Z,135
2017-12-15T10:32:19.641Z,130
2017-12-15T10:33:21.528Z,130
2017-12-15T10:34:23.419Z,135
2017-12-15T10:35:37.582Z,130
2017-12-15T10:36:39.459Z,130
2017-12-15T10:37:41.339Z,135
2017-12-15T10:38:43.217Z,140
2017-12-15T10:39:45.037Z,145
2017-12-15T10:40:46.853Z,150
2017-12-15T10:41:48.729Z,155
2017-12-15T10:42:50.606Z,155
2017-12-15T10:43:52.496Z,160
2017-12-15T10:45:06.654Z,170
2017-12-15T10:46:08.534Z,175
2017-12-15T10:47:10.413Z,170
2017-12-15T10:48:12.290Z,170
2017-12-15T10:49:14.112Z,185
2017-12-15T10:50:15.927Z,195
2017-12-15T10:51:17.816Z,210
2017-12-15T10:52:19.703Z,245
2017-12-15T10:53:21.595Z,270
2017-12-15T10:54:35.757Z,315
2017-12-15T10:55:37.629Z,340
2017-12-15T10:56:39.518Z,350
2017-12-15T10:57:41.397Z,380
2017-12-15T10:58:43.221Z,375
2017-12-15T10:59:45.040Z,380
2017-12-15T11:00:46.918Z,365
2017-12-15T11:01:48.798Z,365
2017-12-15T11:02:50.675Z,355
2017-12-15T11:04:04.831Z,325
2017-12-15T11:05:06.710Z,295
2017-12-15T11:06:08.593Z,275
2017-12-15T11:07:10.487Z,265
2017-12-15T11:08:12.309Z,260
2017-12-15T11:09:14.127Z,255
2017-12-15T11:10:16.023Z,265
2017-12-15T11:11:17.897Z,295
2017-12-15T11:12:19.786Z,345
2017-12-15T11:13:33.950Z,340
2017-12-15T11:14:35.841Z,355
2017-12-15T11:15:37.732Z,380
2017-12-15T11:16:39.611Z,375
2017-12-15T11:17:41.432Z,410
2017-12-15T11:18:43.250Z,435
2017-12-15T11:19:45.132Z,415
2017-12-15T11:20:47.020Z,415
2017-12-15T11:21:48.913Z,405
2017-12-15T11:23:03.068Z,395
2017-12-15T11:24:04.960Z,375
2017-12-15T11:25:06.851Z,325
2017-12-15T11:26:08.731Z,305
2017-12-15T11:27:10.551Z,260
2017-12-15T11:28:12.380Z,255
2017-12-15T11:29:14.269Z,235
2017-12-15T11:30:16.159Z,205
2017-12-15T11:31:18.041Z,195
2017-12-15T11:32:32.195Z,195
2017-12-15T11:33:34.075Z,185
2017-12-15T11:34:35.957Z,200
2017-12-15T11:35:37.832Z,220
2017-12-15T11:36:39.655Z,245
2017-12-15T11:37:41.485Z,225
2017-12-15T11:38:43.364Z,235
2017-12-15T11:39:45.253Z,255
2017-12-15T11:40:47.136Z,260
2017-12-15T11:42:01.299Z,270
2017-12-15T11:43:03.190Z,300
2017-12-15T11:44:05.081Z,265
2017-12-15T11:45:06.969Z,255
2017-12-15T11:46:08.799Z,260
2017-12-15T11:47:10.611Z,255
2017-12-15T11:48:12.500Z,280
2017-12-15T11:49:14.379Z,270
2017-12-15T11:50:16.259Z,250
2017-12-15T11:51:30.423Z,270
2017-12-15T11:52:32.299Z,250
2017-12-15T11:53:34.189Z,235
2017-12-15T11:54:36.065Z,240
2017-12-15T11:55:37.896Z,240
2017-12-15T11:56:39.714Z,220
2017-12-15T11:57:41.593Z,230
2017-12-15T11:58:43.481Z,235
2017-12-15T11:59:45.374Z,245
2017-12-15T12:00:59.531Z,225
2017-12-15T12:02:01.409Z,245
2017-12-15T12:03:03.289Z,235
2017-12-15T12:04:05.167Z,225
2017-12-15T12:05:06.988Z,235
2017-12-15T12:06:08.817Z,240
2017-12-15T12:07:10.697Z,205
2017-12-15T12:08:12.589Z,240
2017-12-15T12:09:14.530Z,230
2017-12-15T12:10:28.629Z,185
2017-12-15T12:11:30.524Z,190
2017-12-15T12:12:32.417Z,190
2017-12-15T12:13:34.306Z,190
2017-12-15T12:14:36.129Z,160
2017-12-15T12:15:37.958Z,155
2017-12-15T12:16:39.851Z,185
2017-12-15T12:17:41.731Z,150
2017-12-15T12:18:43.625Z,165
2017-12-15T12:19:57.778Z,160
2017-12-15T12:20:59.669Z,150
2017-12-15T12:22:01.561Z,165
2017-12-15T12:23:03.444Z,180
2017-12-15T12:24:05.264Z,210
2017-12-15T12:25:07.092Z,265
2017-12-15T12:26:08.983Z,225
2017-12-15T12:27:10.887Z,210
2017-12-15T12:28:12.755Z,220
2017-12-15T12:29:26.969Z,215
2017-12-15T12:30:28.860Z,200
2017-12-15T12:31:30.752Z,195
2017-12-15T12:32:32.641Z,185
2017-12-15T12:33:34.471Z,175
2017-12-15T12:34:36.298Z,175
2017-12-15T12:35:38.194Z,165
2017-12-15T12:36:40.072Z,155
2017-12-15T12:37:41.963Z,165
2017-12-15T12:38:56.129Z,185
2017-12-15T12:39:58.020Z,175
2017-12-15T12:40:59.898Z,170
2017-12-15T12:42:01.780Z,155
2017-12-15T12:43:03.612Z,160
2017-12-15T12:44:05.441Z,155
2017-12-15T12:45:07.329Z,155
2017-12-15T12:46:09.209Z,155
2017-12-15T12:47:11.091Z,145
2017-12-15T12:48:25.244Z,125
2017-12-15T12:49:27.133Z,100
2017-12-15T12:50:29.023Z,100
2017-12-15T12:51:30.903Z,100
2017-12-15T12:52:32.724Z,100
2017-12-15T12:53:34.541Z,95
2017-12-15T12:54:36.435Z,100
2017-12-15T12:55:38.314Z,100
2017-12-15T12:56:40.205Z,95
2017-12-15T12:57:54.368Z,105
2017-12-15T12:58:56.247Z,110
2017-12-15T12:59:58.140Z,115
2017-12-15T13:01:00.033Z,105
2017-12-15T13:02:01.853Z,85
2017-12-15T13:03:03.669Z,70
2017-12-15T13:04:05.561Z,55
2017-12-15T13:05:07.441Z,55
2017-12-15T13:06:09.320Z,50
2017-12-15T13:07:23.471Z,50
2017-12-15T13:08:25.387Z,55
2017-12-15T13:09:27.231Z,60
2017-12-15T13:10:29.111Z,75
2017-12-15T13:11:30.930Z,90
2017-12-15T13:12:32.746Z,105
2017-12-15T13:13:34.599Z,120
2017-12-15T13:14:36.492Z,130
2017-12-15T13:15:38.376Z,140
2017-12-15T13:16:52.530Z,145
2017-12-15T13:17:54.412Z,145
2017-12-15T13:18:56.293Z,150
2017-12-15T13:19:58.186Z,150
2017-12-15T13:21:00.018Z,155
2017-12-15T13:22:01.836Z,160
2017-12-15T13:23:03.720Z,160
2017-12-15T13:24:05.599Z,160
2017-12-15T13:25:07.483Z,140
2017-12-15T13:26:21.635Z,130
2017-12-15T13:27:23.516Z,135
2017-12-15T13:28:25.400Z,140
2017-12-15T13:29:27.281Z,140
2017-12-15T13:30:29.102Z,140
2017-12-15T13:31:30.930Z,140
2017-12-15T13:32:32.810Z,140
2017-12-15T13:33:34.693Z,130
2017-12-15T13:34:36.587Z,120
2017-12-15T13:35:50.740Z,115
2017-12-15T13:36:52.634Z,115
2017-12-15T13:37:54.516Z,110
2017-12-15T13:38:56.407Z,110
2017-12-15T13:39:58.228Z,110
2017-12-15T13:41:00.058Z,105
2017-12-15T13:42:01.947Z,105
2017-12-15T13:43:03.827Z,105
2017-12-15T13:44:05.711Z,100
2017-12-15T13:45:19.865Z,100
2017-12-15T13:46:21.757Z,105
2017-12-15T13:47:23.650Z,110
2017-12-15T13:48:25.527Z,110
2017-12-15T13:49:27.359Z,105
2017-12-15T13:50:29.180Z,100
2017-12-15T13:51:31.071Z,105
2017-12-15T13:52:32.962Z,105
2017-12-15T13:53:34.845Z,105
2017-12-15T13:54:49.046Z,100
2017-12-15T13:55:50.924Z,100
2017-12-15T13:56:52.802Z,95
2017-12-15T13:57:54.882Z,90
2017-12-15T13:58:56.702Z,90
2017-12-15T13:59:58.529Z,85
2017-12-15T14:01:00.418Z,80
2017-12-15T14:02:02.310Z,80
2017-12-15T14:03:04.190Z,75
2017-12-15T14:04:18.354Z,75
2017-12-15T14:05:20.232Z,75
2017-12-15T14:06:22.122Z,70
2017-12-15T14:07:24.002Z,70
2017-12-15T14:08:25.823Z,70
2017-12-15T14:09:27.646Z,70
2017-12-15T14:10:29.520Z,65
2017-12-15T14:11:31.398Z,65
2017-12-15T14:12:33.277Z,60
2017-12-15T14:13:47.430Z,60
2017-12-15T14:14:49.309Z,60
2017-12-15T14:15:51.201Z,60
2017-12-15T14:16:53.118Z,55
2017-12-15T14:17:54.920Z,55
2017-12-15T14:18:56.738Z,55
2017-12-15T14:19:58.629Z,55
2017-12-15T14:21:00.515Z,50
2017-12-15T14:22:02.394Z,50
2017-12-15T14:23:16.546Z,50
2017-12-15T14:24:18.425Z,50
2017-12-15T14:25:20.306Z,45
2017-12-15T14:26:22.185Z,45
2017-12-15T14:27:24.002Z,50
2017-12-15T14:28:25.829Z,45
2017-12-15T14:29:27.706Z,40
2017-12-15T14:30:29.592Z,40
2017-12-15T14:31:31.896Z,35
2017-12-15T14:32:46.053Z,35
2017-12-15T14:33:47.944Z,30
2017-12-15T14:34:49.841Z,35
2017-12-15T14:35:51.718Z,35
2017-12-15T14:36:53.535Z,30
2017-12-15T14:37:55.351Z,30
2017-12-15T14:38:57.249Z,25
2017-12-15T14:39:59.134Z,25
2017-12-15T14:41:01.014Z,25
2017-12-15T14:42:15.173Z,25
2017-12-15T14:43:17.400Z,20
2017-12-15T14:44:19.303Z,20
2017-12-15T14:45:21.205Z,20
2017-12-15T14:46:23.047Z,20
2017-12-15T14:47:24.872Z,15
2017-12-15T14:48:26.779Z,15
2017-12-15T14:49:28.670Z,15
2017-12-15T14:50:30.559Z,15
2017-12-15T14:51:44.722Z,10
2017-12-15T14:52:46.926Z,10
2017-12-15T14:53:48.779Z,10
2017-12-15T14:54:51.005Z,10
2017-12-15T14:55:52.841Z,10
2017-12-15T14:56:54.669Z,10
2017-12-15T14:57:56.551Z,5
2017-12-15T14:58:58.447Z,5
2017-12-15T15:00:00.647Z,5
2017-12-15T15:01:15.158Z,5
2017-12-15T15:02:17.055Z,5
2017-12-15T15:03:18.938Z,5
2017-12-15T15:04:20.828Z,5
2017-12-15T15:05:22.997Z,0
2017-12-15T15:06:24.864Z,0
2017-12-15T15:07:26.728Z,0
2017-12-15T15:08:28.630Z,0
2017-12-15T15:09:30.510Z,0